createdAt,value
2017-08-27T00:00:33.487Z,90.10
2017-08-27T00:03:01.149Z,90.10
2017-08-27T00:05:28.715Z,90.20
2017-08-27T00:07:56.329Z,90.40
2017-08-27T00:10:23.932Z,90.30
2017-08-27T00:12:51.502Z,90.40
2017-08-27T00:15:19.096Z,90.40
2017-08-27T00:17:46.661Z,90.60
2017-08-27T00:20:14.276Z,90.70
2017-08-27T00:22:41.840Z,90.70
2017-08-27T00:25:09.472Z,90.60
2017-08-27T00:27:37.065Z,90.50
2017-08-27T00:30:04.659Z,90.20
2017-08-27T00:32:32.233Z,90.20
2017-08-27T00:34:59.840Z,90.10
2017-08-27T00:37:27.504Z,90.10
2017-08-27T00:39:55.165Z,89.80
2017-08-27T00:42:22.728Z,90.00
2017-08-27T00:44:50.392Z,90.00
2017-08-27T00:47:18.064Z,90.30
2017-08-27T00:49:45.659Z,90.30
2017-08-27T00:52:13.220Z,90.60
2017-08-27T00:54:40.808Z,90.60
2017-08-27T00:57:08.400Z,90.50
2017-08-27T00:59:35.992Z,90.20
2017-08-27T01:02:03.559Z,89.60
2017-08-27T01:04:31.276Z,89.20
2017-08-27T01:06:58.840Z,89.00
2017-08-27T01:09:26.396Z,88.80
2017-08-27T01:11:54.067Z,87.80
2017-08-27T01:14:21.627Z,86.70
2017-08-27T01:16:49.223Z,86.70
2017-08-27T01:19:16.787Z,86.50
2017-08-27T01:21:44.375Z,85.70
2017-08-27T01:24:11.947Z,85.80
2017-08-27T01:26:39.633Z,86.00
2017-08-27T01:29:07.296Z,85.70
2017-08-27T01:31:34.963Z,86.30
2017-08-27T01:34:02.616Z,86.40
2017-08-27T01:36:30.283Z,86.10
2017-08-27T01:38:57.879Z,86.40
2017-08-27T01:41:25.504Z,85.70
2017-08-27T01:43:53.098Z,85.10
2017-08-27T01:46:20.664Z,84.60
2017-08-27T01:48:48.304Z,84.40
2017-08-27T01:51:15.869Z,83.80
2017-08-27T01:53:43.436Z,83.60
2017-08-27T01:56:11.032Z,83.40
2017-08-27T01:58:38.629Z,83.00
2017-08-27T02:01:06.391Z,83.80
2017-08-27T02:03:33.956Z,83.90
2017-08-27T02:06:01.621Z,84.00
2017-08-27T02:08:29.216Z,83.90
2017-08-27T02:10:56.792Z,84.30
2017-08-27T02:13:25.148Z,83.60
2017-08-27T02:15:52.784Z,83.60
2017-08-27T02:18:20.439Z,83.00
2017-08-27T02:20:48.108Z,82.50
2017-08-27T02:23:15.696Z,82.00
2017-08-27T02:25:44.048Z,82.00
2017-08-27T02:28:11.635Z,82.00
2017-08-27T02:30:39.264Z,81.90
2017-08-27T02:33:06.928Z,81.70
2017-08-27T02:35:34.592Z,81.70
2017-08-27T02:38:02.505Z,81.50
2017-08-27T02:40:30.413Z,81.50
2017-08-27T02:42:57.989Z,81.50
2017-08-27T02:45:25.585Z,81.30
2017-08-27T02:47:53.433Z,81.20
2017-08-27T02:50:20.995Z,81.00
2017-08-27T02:52:48.824Z,80.80
2017-08-27T02:55:16.503Z,80.90
2017-08-27T02:57:44.092Z,80.80
2017-08-27T03:00:11.661Z,80.90
2017-08-27T03:02:39.491Z,81.40
2017-08-27T03:05:07.064Z,83.00
2017-08-27T03:07:34.724Z,85.50
2017-08-27T03:10:02.317Z,86.10
2017-08-27T03:12:29.941Z,86.20
2017-08-27T03:14:57.604Z,85.80
2017-08-27T03:17:25.199Z,84.80
2017-08-27T03:19:52.796Z,85.10
2017-08-27T03:22:20.384Z,85.70
2017-08-27T03:24:48.048Z,85.50
2017-08-27T03:27:15.717Z,84.70
2017-08-27T03:29:43.476Z,84.80
2017-08-27T03:32:11.146Z,84.10
2017-08-27T03:34:38.721Z,82.60
2017-08-27T03:37:06.648Z,82.50
2017-08-27T03:39:34.229Z,86.20
2017-08-27T03:42:01.893Z,85.70
2017-08-27T03:44:29.556Z,86.60
2017-08-27T03:46:57.128Z,87.00
2017-08-27T03:49:24.784Z,87.70
2017-08-27T03:51:52.545Z,87.00
2017-08-27T03:54:20.116Z,86.30
2017-08-27T03:56:47.764Z,87.40
2017-08-27T03:59:15.363Z,88.20
2017-08-27T04:01:42.988Z,87.70
2017-08-27T04:04:10.557Z,88.30
2017-08-27T04:06:38.213Z,88.00
2017-08-27T04:09:05.776Z,88.50
2017-08-27T04:11:33.385Z,88.90
2017-08-27T04:14:00.953Z,88.10
2017-08-27T04:16:28.518Z,89.30
2017-08-27T04:18:56.219Z,89.10
2017-08-27T04:21:23.876Z,88.10
2017-08-27T04:23:51.464Z,88.30
2017-08-27T04:26:19.104Z,89.00
2017-08-27T04:28:46.763Z,88.90
2017-08-27T04:31:14.429Z,88.70
2017-08-27T04:33:42.000Z,87.70
2017-08-27T04:36:09.593Z,85.50
2017-08-27T04:38:37.205Z,85.20
2017-08-27T04:41:04.772Z,83.80
2017-08-27T04:43:32.335Z,83.40
2017-08-27T04:45:59.924Z,81.60
2017-08-27T04:48:27.562Z,81.40
2017-08-27T04:50:55.218Z,80.90
2017-08-27T04:53:22.781Z,80.20
2017-08-27T04:55:50.352Z,79.80
2017-08-27T04:58:17.945Z,79.00
2017-08-27T05:00:45.509Z,78.00
2017-08-27T05:03:13.124Z,78.60
2017-08-27T05:05:40.717Z,78.50
2017-08-27T05:08:08.312Z,78.20
2017-08-27T05:10:35.880Z,78.10
2017-08-27T05:13:03.469Z,78.70
2017-08-27T05:15:31.124Z,79.10
2017-08-27T05:17:58.792Z,79.20
2017-08-27T05:20:26.450Z,80.80
2017-08-27T05:22:54.016Z,81.50
2017-08-27T05:25:21.685Z,83.00
2017-08-27T05:27:49.336Z,82.90
2017-08-27T05:30:16.928Z,84.10
2017-08-27T05:32:44.496Z,83.30
2017-08-27T05:35:12.122Z,82.20
2017-08-27T05:37:39.696Z,82.10
2017-08-27T05:40:07.444Z,81.90
2017-08-27T05:42:35.011Z,81.30
2017-08-27T05:45:02.667Z,80.10
2017-08-27T05:47:30.331Z,80.80
2017-08-27T05:49:57.900Z,80.50
2017-08-27T05:52:25.552Z,79.50
2017-08-27T05:54:53.124Z,78.80
2017-08-27T05:57:20.716Z,78.80
2017-08-27T05:59:48.284Z,79.20
2017-08-27T06:02:15.900Z,78.40
2017-08-27T06:04:43.472Z,78.70
2017-08-27T06:07:11.336Z,78.20
2017-08-27T06:09:38.900Z,78.70
2017-08-27T06:12:06.649Z,77.60
2017-08-27T06:14:34.320Z,78.90
2017-08-27T06:17:02.497Z,77.80
2017-08-27T06:19:30.522Z,78.00
2017-08-27T06:21:58.152Z,77.00
2017-08-27T06:24:25.736Z,77.10
2017-08-27T06:26:53.349Z,74.80
2017-08-27T06:29:20.944Z,74.40
2017-08-27T06:31:48.568Z,73.10
2017-08-27T06:34:16.332Z,72.10
2017-08-27T06:36:43.895Z,72.70
2017-08-27T06:39:11.472Z,73.40
2017-08-27T06:41:39.320Z,71.80
2017-08-27T06:44:06.888Z,72.00
2017-08-27T06:46:34.457Z,69.00
2017-08-27T06:49:02.099Z,66.10
2017-08-27T06:51:29.765Z,64.40
2017-08-27T06:53:57.427Z,63.30
2017-08-27T06:56:25.194Z,63.30
2017-08-27T06:58:53.045Z,62.50
2017-08-27T07:01:20.621Z,63.80
2017-08-27T07:03:48.284Z,63.50
2017-08-27T07:06:16.136Z,64.60
2017-08-27T07:08:43.724Z,65.70
2017-08-27T07:11:11.378Z,65.30
2017-08-27T07:13:39.271Z,64.40
2017-08-27T07:16:06.905Z,63.90
2017-08-27T07:18:34.563Z,60.60
2017-08-27T07:21:02.229Z,62.20
2017-08-27T07:23:29.888Z,61.20
2017-08-27T07:25:57.554Z,58.80
2017-08-27T07:28:25.221Z,56.30
2017-08-27T07:30:52.884Z,54.40
2017-08-27T07:33:20.542Z,53.00
2017-08-27T07:35:48.203Z,52.40
2017-08-27T07:38:15.776Z,52.00
2017-08-27T07:40:43.428Z,52.90
2017-08-27T07:43:11.094Z,52.40
2017-08-27T07:45:38.747Z,48.90
2017-08-27T07:48:06.417Z,47.90
2017-08-27T07:50:34.001Z,47.30
2017-08-27T07:53:01.635Z,47.10
2017-08-27T07:55:29.296Z,47.50
2017-08-27T07:57:56.965Z,49.40
2017-08-27T08:00:24.625Z,53.30
2017-08-27T08:02:52.286Z,53.30
2017-08-27T08:05:19.856Z,54.80
2017-08-27T08:07:47.451Z,52.00
2017-08-27T08:10:15.067Z,53.00
2017-08-27T08:12:42.689Z,55.40
2017-08-27T08:15:10.257Z,55.20
2017-08-27T08:17:37.820Z,55.00
2017-08-27T08:20:05.521Z,54.30
2017-08-27T08:22:33.176Z,53.50
2017-08-27T08:25:01.048Z,52.00
2017-08-27T08:27:28.629Z,50.20
2017-08-27T08:29:56.272Z,44.30
2017-08-27T08:32:23.937Z,45.40
2017-08-27T08:34:51.508Z,42.40
2017-08-27T08:37:19.146Z,42.50
2017-08-27T08:39:46.728Z,41.50
2017-08-27T08:42:14.328Z,41.30
2017-08-27T08:44:41.909Z,41.50
2017-08-27T08:47:10.003Z,39.20
2017-08-27T08:49:37.572Z,40.30
2017-08-27T08:52:05.171Z,41.00
2017-08-27T08:54:32.787Z,40.20
2017-08-27T08:57:00.376Z,40.80
2017-08-27T08:59:28.013Z,40.30
2017-08-27T09:01:55.676Z,41.40
2017-08-27T09:04:23.444Z,42.20
2017-08-27T09:06:51.072Z,40.00
2017-08-27T09:09:18.663Z,37.80
2017-08-27T09:11:46.531Z,37.00
2017-08-27T09:14:14.097Z,35.30
2017-08-27T09:16:41.673Z,35.30
2017-08-27T09:19:09.267Z,36.00
2017-08-27T09:21:36.877Z,36.30
2017-08-27T09:24:04.536Z,40.40
2017-08-27T09:26:32.192Z,38.10
2017-08-27T09:28:59.860Z,36.20
2017-08-27T09:31:27.524Z,34.80
2017-08-27T09:33:55.292Z,33.30
2017-08-27T09:36:22.890Z,34.90
2017-08-27T09:38:50.459Z,34.80
2017-08-27T09:41:18.048Z,36.30
2017-08-27T09:43:45.618Z,36.70
2017-08-27T09:46:13.208Z,36.40
2017-08-27T09:48:40.856Z,34.30
2017-08-27T09:51:08.521Z,38.00
2017-08-27T09:53:36.100Z,40.40
2017-08-27T09:56:04.492Z,42.20
2017-08-27T09:58:32.120Z,42.20
2017-08-27T10:00:59.692Z,43.40
2017-08-27T10:03:27.316Z,43.50
2017-08-27T10:05:54.905Z,40.30
2017-08-27T10:08:22.500Z,39.90
2017-08-27T10:10:50.073Z,40.40
2017-08-27T10:13:17.688Z,41.70
2017-08-27T10:15:47.088Z,38.60
2017-08-27T10:18:14.788Z,37.20
2017-08-27T10:20:43.121Z,37.70
2017-08-27T10:23:10.692Z,37.60
2017-08-27T10:25:38.351Z,32.80
2017-08-27T10:28:05.929Z,30.40
2017-08-27T10:30:33.524Z,28.10
2017-08-27T10:33:01.089Z,28.10
2017-08-27T10:35:28.679Z,27.90
2017-08-27T10:37:56.259Z,28.00
2017-08-27T10:40:23.856Z,29.70
2017-08-27T10:42:51.491Z,33.00
2017-08-27T10:45:19.248Z,32.00
2017-08-27T10:47:47.113Z,33.90
2017-08-27T10:50:14.696Z,34.40
2017-08-27T10:52:42.544Z,33.60
2017-08-27T10:55:10.116Z,34.30
2017-08-27T10:57:37.763Z,37.80
2017-08-27T11:00:05.428Z,38.10
2017-08-27T11:02:32.991Z,38.40
2017-08-27T11:05:00.704Z,40.50
2017-08-27T11:07:28.320Z,39.90
2017-08-27T11:09:55.888Z,37.50
2017-08-27T11:12:23.531Z,37.10
2017-08-27T11:14:51.095Z,36.80
2017-08-27T11:17:18.685Z,38.70
2017-08-27T11:19:46.603Z,39.50
2017-08-27T11:22:14.388Z,40.10
2017-08-27T11:24:41.952Z,37.10
2017-08-27T11:27:09.608Z,33.90
2017-08-27T11:29:37.200Z,33.80
2017-08-27T11:32:04.764Z,32.00
2017-08-27T11:34:32.353Z,32.30
2017-08-27T11:36:59.918Z,33.90
2017-08-27T11:39:27.619Z,35.70
2017-08-27T11:41:55.386Z,36.60
2017-08-27T11:44:22.960Z,36.80
2017-08-27T11:46:50.560Z,37.70
2017-08-27T11:49:18.126Z,39.40
2017-08-27T11:51:45.712Z,40.30
2017-08-27T11:54:13.280Z,38.10
2017-08-27T11:56:40.950Z,34.90
2017-08-27T11:59:08.513Z,34.80
2017-08-27T12:01:36.175Z,33.00
2017-08-27T12:04:03.736Z,29.40
2017-08-27T12:06:31.354Z,28.90
2017-08-27T12:08:58.920Z,28.60
2017-08-27T12:11:26.484Z,27.80
2017-08-27T12:13:54.176Z,26.50
2017-08-27T12:16:21.740Z,25.30
2017-08-27T12:18:49.338Z,24.30
2017-08-27T12:21:16.960Z,23.60
2017-08-27T12:23:44.625Z,24.60
2017-08-27T12:26:12.284Z,24.00
2017-08-27T12:28:39.879Z,24.50
2017-08-27T12:31:07.508Z,25.40
2017-08-27T12:33:35.177Z,27.00
2017-08-27T12:36:02.832Z,29.40
2017-08-27T12:38:31.173Z,31.60
2017-08-27T12:40:58.760Z,33.60
2017-08-27T12:43:26.334Z,34.80
2017-08-27T12:45:53.920Z,35.50
2017-08-27T12:48:21.485Z,39.00
2017-08-27T12:50:49.116Z,37.20
2017-08-27T12:53:16.784Z,36.90
2017-08-27T12:55:44.440Z,35.60
2017-08-27T12:58:12.104Z,35.10
2017-08-27T13:00:39.764Z,37.10
2017-08-27T13:03:07.432Z,38.30
2017-08-27T13:05:35.305Z,39.70
2017-08-27T13:08:03.656Z,38.10
2017-08-27T13:10:31.220Z,38.10
2017-08-27T13:12:58.805Z,34.70
2017-08-27T13:15:26.373Z,30.30
2017-08-27T13:17:54.020Z,29.60
2017-08-27T13:20:21.680Z,28.30
2017-08-27T13:22:49.452Z,27.60
2017-08-27T13:25:17.012Z,26.70
2017-08-27T13:27:44.673Z,25.90
2017-08-27T13:30:12.261Z,26.30
2017-08-27T13:32:40.601Z,25.20
2017-08-27T13:35:08.273Z,25.20
2017-08-27T13:37:35.932Z,24.90
2017-08-27T13:40:03.596Z,25.70
2017-08-27T13:42:31.161Z,26.50
2017-08-27T13:44:58.820Z,25.50
2017-08-27T13:47:26.392Z,24.80
2017-08-27T13:49:54.143Z,25.20
2017-08-27T13:52:21.712Z,26.00
2017-08-27T13:54:49.280Z,27.00
2017-08-27T13:57:16.870Z,26.90
2017-08-27T13:59:44.488Z,26.30
2017-08-27T14:02:12.080Z,27.00
2017-08-27T14:04:39.640Z,27.70
2017-08-27T14:07:07.273Z,27.40
2017-08-27T14:09:34.940Z,27.30
2017-08-27T14:12:02.608Z,28.60
2017-08-27T14:14:30.265Z,31.20
2017-08-27T14:16:58.004Z,32.30
2017-08-27T14:19:25.591Z,33.20
2017-08-27T14:21:53.246Z,33.80
2017-08-27T14:24:20.804Z,34.90
2017-08-27T14:26:48.474Z,36.60
2017-08-27T14:29:16.132Z,37.90
2017-08-27T14:31:43.696Z,38.30
2017-08-27T14:34:11.283Z,37.80
2017-08-27T14:36:38.916Z,36.10
2017-08-27T14:39:06.584Z,35.20
2017-08-27T14:41:34.240Z,32.90
2017-08-27T14:44:01.903Z,31.30
2017-08-27T14:46:29.465Z,31.20
2017-08-27T14:48:57.128Z,32.20
2017-08-27T14:51:24.688Z,31.60
2017-08-27T14:53:52.248Z,31.70
2017-08-27T14:56:19.831Z,30.80
2017-08-27T14:58:47.472Z,30.70
2017-08-27T15:01:15.052Z,31.50
2017-08-27T15:03:42.626Z,32.80
2017-08-27T15:06:10.252Z,32.30
2017-08-27T15:08:37.912Z,32.10
2017-08-27T15:11:05.505Z,31.70
2017-08-27T15:13:33.856Z,31.20
2017-08-27T15:16:01.516Z,31.10
2017-08-27T15:18:29.084Z,31.10
2017-08-27T15:20:56.739Z,31.30
2017-08-27T15:23:24.301Z,32.40
2017-08-27T15:25:51.963Z,31.60
2017-08-27T15:28:19.627Z,31.50
2017-08-27T15:30:47.287Z,32.60
2017-08-27T15:33:14.893Z,32.40
2017-08-27T15:35:42.512Z,33.30
2017-08-27T15:38:10.082Z,33.80
2017-08-27T15:40:37.736Z,34.10
2017-08-27T15:43:05.400Z,34.70
2017-08-27T15:45:32.983Z,35.30
2017-08-27T15:48:01.335Z,36.20
2017-08-27T15:50:29.005Z,36.20
2017-08-27T15:52:56.572Z,37.00
2017-08-27T15:55:24.157Z,36.30
2017-08-27T15:57:51.716Z,36.10
2017-08-27T16:00:19.308Z,37.10
2017-08-27T16:02:46.909Z,37.30
2017-08-27T16:05:14.463Z,38.00
2017-08-27T16:07:42.049Z,38.00
2017-08-27T16:10:09.689Z,37.80
2017-08-27T16:12:37.352Z,38.10
2017-08-27T16:15:04.912Z,38.60
2017-08-27T16:17:32.501Z,39.10
2017-08-27T16:20:00.137Z,39.40
2017-08-27T16:22:27.715Z,39.20
2017-08-27T16:24:55.276Z,40.40
2017-08-27T16:27:23.156Z,39.60
2017-08-27T16:29:50.725Z,39.80
2017-08-27T16:32:18.284Z,40.50
2017-08-27T16:34:45.869Z,40.70
2017-08-27T16:37:13.432Z,40.80
2017-08-27T16:39:41.024Z,39.90
2017-08-27T16:42:08.584Z,40.70
2017-08-27T16:44:36.168Z,40.20
2017-08-27T16:47:14.031Z,39.90
2017-08-27T16:49:41.620Z,39.90
2017-08-27T16:52:09.184Z,40.10
2017-08-27T16:54:37.541Z,40.80
2017-08-27T16:57:05.112Z,40.70
2017-08-27T16:59:32.699Z,42.10
2017-08-27T17:02:00.264Z,42.40
2017-08-27T17:04:27.893Z,42.50
2017-08-27T17:06:55.469Z,42.70
2017-08-27T17:09:23.836Z,45.10
2017-08-27T17:11:51.679Z,45.00
2017-08-27T17:14:19.240Z,45.60
2017-08-27T17:16:47.108Z,47.30
2017-08-27T17:19:14.669Z,47.10
2017-08-27T17:21:42.252Z,48.20
2017-08-27T17:24:09.812Z,48.70
2017-08-27T17:26:37.400Z,48.80
2017-08-27T17:29:04.961Z,49.10
2017-08-27T17:31:32.547Z,49.80
2017-08-27T17:34:00.112Z,50.20
2017-08-27T17:36:27.696Z,50.40
2017-08-27T17:38:55.256Z,50.70
2017-08-27T17:41:22.868Z,51.10
2017-08-27T17:43:50.508Z,51.70
2017-08-27T17:46:18.068Z,51.50
2017-08-27T17:48:45.920Z,52.00
2017-08-27T17:51:13.501Z,52.30
2017-08-27T17:53:41.063Z,52.50
2017-08-27T17:56:08.655Z,52.90
2017-08-27T17:58:36.208Z,53.10
2017-08-27T18:01:03.792Z,53.50
2017-08-27T18:03:31.352Z,53.90
2017-08-27T18:05:59.111Z,54.20
2017-08-27T18:08:26.676Z,54.60
2017-08-27T18:10:54.240Z,55.10
2017-08-27T18:13:21.827Z,55.40
2017-08-27T18:15:49.392Z,56.10
2017-08-27T18:18:16.985Z,55.90
2017-08-27T18:20:44.619Z,55.90
2017-08-27T18:23:12.212Z,56.20
2017-08-27T18:25:39.836Z,56.40
2017-08-27T18:28:07.434Z,57.00
2017-08-27T18:30:34.997Z,56.90
2017-08-27T18:33:02.568Z,57.20
2017-08-27T18:35:30.280Z,57.50
2017-08-27T18:37:58.104Z,57.80
2017-08-27T18:40:25.666Z,58.00
2017-08-27T18:42:53.259Z,58.30
2017-08-27T18:45:20.832Z,58.40
2017-08-27T18:47:48.493Z,58.60
2017-08-27T18:50:16.152Z,58.50
2017-08-27T18:52:43.817Z,58.80
2017-08-27T18:55:11.372Z,59.00
2017-08-27T18:57:39.265Z,59.00
2017-08-27T19:00:06.903Z,59.20
2017-08-27T19:02:34.459Z,59.30
2017-08-27T19:05:02.125Z,59.40
2017-08-27T19:07:29.687Z,59.20
2017-08-27T19:09:57.276Z,59.50
2017-08-27T19:12:24.841Z,59.60
2017-08-27T19:14:52.463Z,59.90
2017-08-27T19:17:20.024Z,59.90
2017-08-27T19:19:47.584Z,60.10
2017-08-27T19:22:15.256Z,60.40
2017-08-27T19:24:42.818Z,60.30
2017-08-27T19:27:10.483Z,60.70
2017-08-27T19:29:38.043Z,60.60
2017-08-27T19:32:05.640Z,60.50
2017-08-27T19:34:33.200Z,60.60
2017-08-27T19:37:00.789Z,60.70
2017-08-27T19:39:28.381Z,60.80
2017-08-27T19:41:55.966Z,60.70
2017-08-27T19:44:23.524Z,60.90
2017-08-27T19:46:51.124Z,61.00
2017-08-27T19:49:18.689Z,61.40
2017-08-27T19:51:46.285Z,61.30
2017-08-27T19:54:13.869Z,61.90
2017-08-27T19:56:41.428Z,62.50
2017-08-27T19:59:09.016Z,64.20
2017-08-27T20:01:36.577Z,63.20
2017-08-27T20:04:04.168Z,63.50
2017-08-27T20:06:31.733Z,62.30
2017-08-27T20:09:00.824Z,61.90
2017-08-27T20:11:28.403Z,62.30
2017-08-27T20:13:56.398Z,62.40
2017-08-27T20:16:23.984Z,62.80
2017-08-27T20:18:51.555Z,63.20
2017-08-27T20:21:19.136Z,61.90
2017-08-27T20:23:46.696Z,63.40
2017-08-27T20:26:14.380Z,61.90
2017-08-27T20:28:41.946Z,62.70
2017-08-27T20:31:09.532Z,63.90
2017-08-27T20:33:37.536Z,62.80
2017-08-27T20:36:05.136Z,64.10
2017-08-27T20:38:32.699Z,64.20
2017-08-27T20:41:00.288Z,63.00
2017-08-27T20:43:27.934Z,65.20
2017-08-27T20:45:55.577Z,64.90
2017-08-27T20:48:23.240Z,64.50
2017-08-27T20:50:50.824Z,64.90
2017-08-27T20:53:18.388Z,65.20
2017-08-27T20:55:46.015Z,65.90
2017-08-27T20:58:13.596Z,64.90
2017-08-27T21:00:41.245Z,66.30
2017-08-27T21:03:09.093Z,65.40
2017-08-27T21:05:36.779Z,66.40
2017-08-27T21:08:04.345Z,66.00
2017-08-27T21:10:31.929Z,65.60
2017-08-27T21:13:00.252Z,66.90
2017-08-27T21:15:27.835Z,67.00
2017-08-27T21:17:55.496Z,66.70
2017-08-27T21:20:23.108Z,67.10
2017-08-27T21:22:50.668Z,65.70
2017-08-27T21:25:18.280Z,67.00
2017-08-27T21:27:45.859Z,65.90
2017-08-27T21:30:13.508Z,67.50
2017-08-27T21:32:41.165Z,67.10
2017-08-27T21:35:08.807Z,66.40
2017-08-27T21:37:36.400Z,65.20
2017-08-27T21:40:03.962Z,66.70
2017-08-27T21:42:31.543Z,67.30
2017-08-27T21:44:59.171Z,66.80
2017-08-27T21:47:26.756Z,67.90
2017-08-27T21:49:54.396Z,68.00
2017-08-27T21:52:21.984Z,68.10
2017-08-27T21:54:49.544Z,67.20
2017-08-27T21:57:17.896Z,67.90
2017-08-27T21:59:45.551Z,67.70
2017-08-27T22:02:13.136Z,68.00
2017-08-27T22:04:40.697Z,67.20
2017-08-27T22:07:08.280Z,66.10
2017-08-27T22:09:35.904Z,65.80
2017-08-27T22:12:03.492Z,66.30
2017-08-27T22:14:31.119Z,66.40
2017-08-27T22:16:58.779Z,67.00
2017-08-27T22:19:26.448Z,67.40
2017-08-27T22:21:54.009Z,67.20
2017-08-27T22:24:21.595Z,67.70
2017-08-27T22:26:49.225Z,67.90
2017-08-27T22:29:16.815Z,67.80
2017-08-27T22:31:44.380Z,68.20
2017-08-27T22:34:12.016Z,69.90
2017-08-27T22:36:39.676Z,69.10
2017-08-27T22:39:07.269Z,69.50
2017-08-27T22:41:34.904Z,70.30
2017-08-27T22:44:02.506Z,68.90
2017-08-27T22:46:30.064Z,69.80
2017-08-27T22:48:57.653Z,70.00
2017-08-27T22:51:25.216Z,69.40
2017-08-27T22:53:52.804Z,68.50
2017-08-27T22:56:20.662Z,69.90
2017-08-27T22:58:48.268Z,68.50
2017-08-27T23:01:16.284Z,68.20
2017-08-27T23:03:43.968Z,70.80
2017-08-27T23:06:11.552Z,71.30
2017-08-27T23:08:39.147Z,72.00
2017-08-27T23:11:06.709Z,70.90
2017-08-27T23:13:34.308Z,69.90
2017-08-27T23:16:01.873Z,70.30
2017-08-27T23:18:29.532Z,70.60
2017-08-27T23:20:58.017Z,72.40
2017-08-27T23:23:25.625Z,71.40
2017-08-27T23:25:53.186Z,71.80
2017-08-27T23:28:20.757Z,70.40
2017-08-27T23:30:48.352Z,70.20
2017-08-27T23:33:15.911Z,69.90
2017-08-27T23:35:43.495Z,69.90
2017-08-27T23:38:11.059Z,69.80
2017-08-27T23:40:38.700Z,70.00
2017-08-27T23:43:06.273Z,70.40
2017-08-27T23:45:33.928Z,70.50
2017-08-27T23:48:01.500Z,71.20
2017-08-27T23:50:29.144Z,72.00
2017-08-27T23:52:56.810Z,72.10
2017-08-27T23:55:24.392Z,72.90
2017-08-27T23:57:52.028Z,72.40
